createdAt,value
2022-11-02T00:01:21.091Z,6.60
2022-11-02T00:03:50.484Z,5.83
2022-11-02T00:06:19.999Z,6.20
2022-11-02T00:08:49.148Z,6.00
2022-11-02T00:11:18.287Z,6.00
2022-11-02T00:13:47.400Z,6.73
2022-11-02T00:16:20.300Z,7.03
2022-11-02T00:18:51.058Z,7.20
2022-11-02T00:21:21.804Z,6.67
2022-11-02T00:23:51.408Z,5.83
2022-11-02T00:26:20.751Z,6.77
2022-11-02T00:28:49.866Z,6.67
2022-11-02T00:31:20.476Z,6.83
2022-11-02T00:33:49.769Z,6.87
2022-11-02T00:36:18.980Z,6.43
2022-11-02T00:38:48.069Z,6.57
2022-11-02T00:41:17.680Z,7.50
2022-11-02T00:43:46.786Z,6.93
2022-11-02T00:46:17.092Z,6.23
2022-11-02T00:48:47.821Z,6.20
2022-11-02T00:51:17.226Z,6.40
2022-11-02T00:53:47.245Z,6.27
2022-11-02T00:56:16.441Z,5.77
2022-11-02T00:58:45.795Z,7.40
2022-11-02T01:01:15.021Z,5.67
2022-11-02T01:03:44.244Z,6.90
2022-11-02T01:06:15.582Z,5.73
2022-11-02T01:08:44.869Z,6.30
2022-11-02T01:11:15.328Z,5.80
2022-11-02T01:13:44.564Z,6.80
2022-11-02T01:16:14.521Z,5.80
2022-11-02T01:18:43.881Z,4.83
2022-11-02T01:21:14.662Z,6.00
2022-11-02T01:23:44.214Z,5.63
2022-11-02T01:26:14.090Z,5.50
2022-11-02T01:28:43.655Z,5.60
2022-11-02T01:31:14.972Z,4.77
2022-11-02T01:33:46.474Z,5.13
2022-11-02T01:38:50.729Z,5.17
2022-11-02T01:41:20.092Z,4.83
2022-11-02T01:43:52.196Z,5.50
2022-11-02T01:46:24.760Z,5.20
2022-11-02T01:48:57.687Z,6.60
2022-11-02T01:51:29.577Z,5.73
2022-11-02T01:54:00.061Z,5.57
2022-11-02T01:56:32.647Z,5.40
2022-11-02T01:59:04.054Z,5.13
2022-11-02T02:01:33.637Z,5.73
2022-11-02T02:04:04.193Z,4.63
2022-11-02T02:06:40.261Z,5.33
2022-11-02T02:09:10.264Z,5.30
2022-11-02T02:11:40.526Z,5.27
2022-11-02T02:14:12.035Z,5.87
2022-11-02T02:16:57.187Z,5.20
2022-11-02T02:19:39.753Z,6.17
2022-11-02T02:22:15.104Z,5.43
2022-11-02T02:24:50.868Z,5.87
2022-11-02T02:27:23.108Z,5.57
2022-11-02T02:30:02.078Z,5.67
2022-11-02T02:32:35.502Z,5.93
2022-11-02T02:35:10.856Z,5.47
2022-11-02T02:37:43.741Z,6.10
2022-11-02T02:40:16.007Z,6.17
2022-11-02T02:42:48.041Z,5.50
2022-11-02T02:45:21.149Z,5.80
2022-11-02T02:47:52.577Z,5.57
2022-11-02T02:50:23.940Z,5.37
2022-11-02T02:52:55.031Z,6.27
2022-11-02T02:55:27.096Z,5.90
2022-11-02T02:57:56.779Z,6.30
2022-11-02T03:00:27.356Z,6.40
2022-11-02T03:03:03.573Z,5.53
2022-11-02T03:05:35.281Z,6.40
2022-11-02T03:08:09.744Z,5.23
2022-11-02T03:10:44.385Z,5.90
2022-11-02T03:13:20.613Z,5.47
2022-11-02T03:15:52.465Z,5.43
2022-11-02T03:18:28.218Z,4.83
2022-11-02T03:21:00.644Z,4.67
2022-11-02T03:23:33.300Z,4.37
2022-11-02T03:26:06.754Z,5.10
2022-11-02T03:28:45.264Z,4.50
2022-11-02T03:31:20.165Z,4.53
2022-11-02T03:33:54.586Z,4.33
2022-11-02T03:36:27.666Z,3.60
2022-11-02T03:38:59.996Z,3.93
2022-11-02T03:41:32.161Z,4.10
2022-11-02T03:44:06.176Z,4.27
2022-11-02T03:46:38.538Z,4.20
2022-11-02T03:49:09.927Z,4.77
2022-11-02T03:51:42.570Z,4.33
2022-11-02T03:54:15.845Z,4.17
2022-11-02T03:56:48.520Z,3.80
2022-11-02T03:59:18.526Z,4.37
2022-11-02T04:01:51.630Z,4.13
2022-11-02T04:04:22.724Z,4.57
2022-11-02T04:06:53.089Z,4.37
2022-11-02T04:09:22.293Z,4.93
2022-11-02T04:12:09.066Z,4.43
2022-11-02T04:14:41.664Z,4.20
2022-11-02T04:17:36.029Z,4.70
2022-11-02T04:20:11.745Z,4.37
2022-11-02T04:22:59.060Z,3.53
2022-11-02T04:25:28.628Z,3.60
2022-11-02T04:28:21.149Z,3.80
2022-11-02T04:30:55.766Z,3.13
2022-11-02T04:33:35.315Z,4.03
2022-11-02T04:36:23.298Z,3.47
2022-11-02T04:38:56.269Z,3.30
2022-11-02T04:41:44.826Z,4.00
2022-11-02T04:44:26.223Z,3.97
2022-11-02T04:47:20.550Z,3.67
2022-11-02T04:49:51.705Z,3.13
2022-11-02T04:52:21.756Z,4.50
2022-11-02T04:54:53.427Z,3.30
2022-11-02T04:57:22.612Z,3.73
2022-11-02T04:59:52.356Z,3.23
2022-11-02T05:02:21.652Z,4.07
2022-11-02T05:04:52.472Z,3.57
2022-11-02T05:07:22.066Z,4.20
2022-11-02T05:09:52.608Z,3.03
2022-11-02T05:12:26.621Z,4.00
2022-11-02T05:14:58.220Z,4.27
2022-11-02T05:17:27.381Z,3.90
2022-11-02T05:19:58.227Z,3.60
2022-11-02T05:22:28.305Z,3.97
2022-11-02T05:24:57.548Z,4.60
2022-11-02T05:27:26.814Z,4.77
2022-11-02T05:29:56.049Z,4.57
2022-11-02T05:32:25.351Z,4.30
2022-11-02T05:34:55.052Z,4.57
2022-11-02T05:37:26.915Z,4.50
2022-11-02T05:39:56.074Z,4.27
2022-11-02T05:42:26.198Z,3.63
2022-11-02T05:44:55.569Z,4.40
2022-11-02T05:47:24.606Z,5.10
2022-11-02T05:49:53.916Z,4.27
2022-11-02T05:52:23.130Z,5.27
2022-11-02T05:54:53.647Z,4.33
2022-11-02T05:57:23.133Z,4.30
2022-11-02T05:59:52.428Z,4.50
2022-11-02T06:02:23.399Z,3.83
2022-11-02T06:04:55.060Z,5.10
2022-11-02T06:07:24.399Z,4.57
2022-11-02T06:09:55.036Z,4.47
2022-11-02T06:12:24.392Z,4.17
2022-11-02T06:14:53.643Z,3.77
2022-11-02T06:17:22.731Z,4.07
2022-11-02T06:19:52.326Z,3.50
2022-11-02T06:22:21.607Z,4.63
2022-11-02T06:24:50.706Z,3.90
2022-11-02T06:27:21.556Z,4.27
2022-11-02T06:29:50.739Z,5.43
2022-11-02T06:32:20.059Z,6.33
2022-11-02T06:34:49.645Z,4.27
2022-11-02T06:37:18.861Z,4.23
2022-11-02T06:39:48.111Z,4.57
2022-11-02T06:42:17.362Z,3.57
2022-11-02T06:44:47.996Z,4.17
2022-11-02T06:47:17.680Z,4.07
2022-11-02T06:49:46.946Z,4.63
2022-11-02T06:52:16.818Z,4.43
2022-11-02T06:54:45.923Z,3.83
2022-11-02T06:57:15.224Z,3.40
2022-11-02T06:59:44.379Z,4.73
2022-11-02T07:02:15.083Z,4.57
2022-11-02T07:04:44.630Z,3.60
2022-11-02T07:07:13.691Z,4.23
2022-11-02T07:09:42.840Z,4.30
2022-11-02T07:12:11.935Z,4.17
2022-11-02T07:14:41.353Z,3.90
2022-11-02T07:17:10.620Z,4.23
2022-11-02T07:19:41.156Z,3.97
2022-11-02T07:22:10.499Z,4.40
2022-11-02T07:24:39.574Z,4.10
2022-11-02T07:27:08.908Z,8.37
2022-11-02T07:29:37.953Z,3.73
2022-11-02T07:32:09.038Z,4.20
2022-11-02T07:34:38.278Z,5.83
2022-11-02T07:37:09.409Z,4.30
2022-11-02T07:39:38.882Z,5.10
2022-11-02T07:42:08.525Z,5.43
2022-11-02T07:44:37.989Z,4.47
2022-11-02T07:47:07.191Z,4.30
2022-11-02T07:49:36.730Z,5.00
2022-11-02T07:52:05.918Z,5.00
2022-11-02T07:54:39.550Z,3.90
2022-11-02T07:57:12.975Z,4.97
2022-11-02T07:59:41.988Z,4.57
2022-11-02T08:02:13.836Z,4.20
2022-11-02T08:04:45.011Z,3.60
2022-11-02T08:07:15.299Z,3.70
2022-11-02T08:09:45.907Z,3.83
2022-11-02T08:12:15.119Z,4.27
2022-11-02T08:14:44.792Z,3.80
2022-11-02T08:17:14.291Z,4.90
2022-11-02T08:19:43.501Z,4.10
2022-11-02T08:22:12.687Z,4.97
2022-11-02T08:24:41.844Z,3.53
2022-11-02T08:27:12.568Z,3.63
2022-11-02T08:29:41.858Z,3.60
2022-11-02T08:32:10.892Z,3.23
2022-11-02T08:34:40.115Z,7.20
2022-11-02T08:37:10.081Z,6.33
2022-11-02T08:39:39.457Z,3.77
2022-11-02T08:42:08.497Z,4.63
2022-11-02T08:44:42.512Z,7.00
2022-11-02T08:47:12.134Z,3.67
2022-11-02T08:49:41.382Z,4.17
2022-11-02T08:52:10.576Z,3.60
2022-11-02T08:54:39.630Z,3.23
2022-11-02T08:57:08.981Z,3.70
2022-11-02T08:59:39.459Z,3.73
2022-11-02T09:02:08.986Z,3.40
2022-11-02T09:04:38.150Z,6.10
2022-11-02T09:07:07.948Z,3.80
2022-11-02T09:09:36.998Z,2.83
2022-11-02T09:12:06.536Z,3.80
2022-11-02T09:14:35.865Z,4.83
2022-11-02T09:17:07.955Z,3.87
2022-11-02T09:19:37.032Z,3.20
2022-11-02T09:22:06.430Z,3.27
2022-11-02T09:24:35.775Z,3.07
2022-11-02T09:27:04.820Z,3.20
2022-11-02T09:29:34.166Z,3.83
2022-11-02T09:32:03.220Z,6.60
2022-11-02T09:34:33.885Z,4.97
2022-11-02T09:37:02.944Z,3.90
2022-11-02T09:39:32.245Z,3.33
2022-11-02T09:42:06.285Z,2.93
2022-11-02T09:44:41.905Z,3.80
2022-11-02T09:50:04.777Z,2.83
2022-11-02T09:52:35.808Z,3.10
2022-11-02T09:55:06.963Z,2.60
2022-11-02T09:57:36.655Z,2.53
2022-11-02T10:00:06.513Z,2.30
2022-11-02T10:02:48.855Z,2.57
2022-11-02T10:05:27.013Z,2.70
2022-11-02T10:08:15.104Z,3.27
2022-11-02T10:10:50.661Z,6.03
2022-11-02T10:13:24.982Z,2.10
2022-11-02T10:15:56.549Z,3.00
2022-11-02T10:18:27.185Z,2.57
2022-11-02T10:20:59.861Z,2.37
2022-11-02T10:23:31.417Z,2.40
2022-11-02T10:26:02.038Z,2.50
2022-11-02T10:28:32.657Z,2.00
2022-11-02T10:31:02.677Z,2.30
2022-11-02T10:33:33.023Z,2.73
2022-11-02T10:36:18.211Z,2.90
2022-11-02T10:38:54.422Z,2.70
2022-11-02T10:41:31.124Z,2.67
2022-11-02T10:44:06.063Z,2.43
2022-11-02T10:46:47.839Z,2.60
2022-11-02T10:49:23.820Z,2.50
2022-11-02T10:51:54.473Z,2.20
2022-11-02T10:54:29.328Z,2.20
2022-11-02T10:57:10.231Z,2.60
2022-11-02T10:59:39.466Z,2.20
2022-11-02T11:02:13.673Z,2.00
2022-11-02T11:04:43.465Z,2.30
2022-11-02T11:07:18.993Z,4.93
2022-11-02T11:09:50.738Z,3.80
2022-11-02T11:12:22.575Z,2.50
2022-11-02T11:20:35.169Z,1.60
2022-11-02T11:23:23.245Z,2.23
2022-11-02T11:25:57.010Z,2.00
2022-11-02T11:28:27.678Z,1.90
2022-11-02T11:31:10.829Z,4.70
2022-11-02T11:33:47.974Z,2.27
2022-11-02T11:38:57.893Z,1.87
2022-11-02T11:41:27.942Z,3.20
2022-11-02T11:43:57.456Z,1.83
2022-11-02T11:46:40.450Z,2.13
2022-11-02T11:49:19.447Z,1.90
2022-11-02T11:51:51.436Z,2.40
2022-11-02T11:54:24.597Z,2.00
2022-11-02T11:56:55.372Z,1.77
2022-11-02T11:59:26.534Z,1.80
2022-11-02T12:01:58.305Z,2.53
2022-11-02T12:04:32.050Z,2.57
2022-11-02T12:07:12.619Z,1.83
2022-11-02T12:09:46.938Z,1.67
2022-11-02T12:12:21.386Z,1.90
2022-11-02T12:14:54.977Z,1.60
2022-11-02T12:17:30.593Z,3.13
2022-11-02T12:20:07.483Z,2.63
2022-11-02T12:22:40.722Z,2.70
2022-11-02T12:25:22.981Z,1.73
2022-11-02T12:27:55.120Z,1.87
2022-11-02T12:30:25.366Z,2.07
2022-11-02T12:33:04.992Z,2.60
2022-11-02T12:35:41.256Z,2.30
2022-11-02T12:38:25.327Z,2.00
2022-11-02T12:41:01.840Z,2.20
2022-11-02T12:43:41.680Z,1.80
2022-11-02T12:46:20.799Z,2.07
2022-11-02T12:48:54.868Z,1.93
2022-11-02T12:51:26.328Z,2.03
2022-11-02T12:53:57.870Z,1.87
2022-11-02T12:56:30.186Z,2.90
2022-11-02T12:59:01.162Z,2.50
2022-11-02T13:01:31.441Z,2.70
2022-11-02T13:04:03.948Z,3.73
2022-11-02T13:06:36.963Z,2.80
2022-11-02T13:09:09.691Z,3.40
2022-11-02T13:11:43.252Z,2.70
2022-11-02T13:14:15.661Z,2.40
2022-11-02T13:16:48.916Z,1.83
2022-11-02T13:19:20.642Z,2.00
2022-11-02T13:21:54.974Z,1.90
2022-11-02T13:24:29.596Z,2.40
2022-11-02T13:27:21.895Z,1.70
2022-11-02T13:29:55.110Z,1.90
2022-11-02T13:32:32.618Z,2.40
2022-11-02T13:35:06.439Z,2.17
2022-11-02T13:37:37.481Z,2.87
2022-11-02T13:40:09.636Z,2.70
2022-11-02T13:43:02.764Z,3.10
2022-11-02T13:45:48.427Z,2.63
2022-11-02T13:48:23.422Z,3.27
2022-11-02T13:50:54.368Z,2.40
2022-11-02T13:53:26.227Z,3.63
2022-11-02T13:55:56.825Z,3.07
2022-11-02T13:58:27.663Z,3.60
2022-11-02T14:01:04.663Z,2.90
2022-11-02T14:03:36.225Z,2.23
2022-11-02T14:06:11.666Z,2.80
2022-11-02T14:08:43.309Z,2.33
2022-11-02T14:11:37.571Z,2.03
2022-11-02T14:14:21.283Z,3.37
2022-11-02T14:19:33.591Z,2.07
2022-11-02T14:22:10.688Z,3.70
2022-11-02T14:24:55.804Z,3.10
2022-11-02T14:27:31.606Z,3.30
2022-11-02T14:30:00.860Z,2.67
2022-11-02T14:32:41.142Z,2.77
2022-11-02T14:35:24.470Z,3.20
2022-11-02T14:38:11.462Z,4.70
2022-11-02T14:40:47.797Z,3.27
2022-11-02T14:43:37.959Z,3.30
2022-11-02T14:46:15.295Z,2.60
2022-11-02T14:48:48.453Z,2.37
2022-11-02T14:51:20.118Z,2.20
2022-11-02T14:53:49.825Z,3.00
2022-11-02T14:56:19.029Z,2.83
2022-11-02T14:58:52.937Z,2.73
2022-11-02T15:01:22.440Z,2.10
2022-11-02T15:03:54.231Z,2.20
2022-11-02T15:06:26.898Z,2.00
2022-11-02T15:08:57.511Z,3.00
2022-11-02T15:11:46.361Z,2.40
2022-11-02T15:14:33.293Z,1.77
2022-11-02T15:17:02.994Z,2.60
2022-11-02T15:19:46.704Z,2.93
2022-11-02T15:22:34.908Z,2.80
2022-11-02T15:25:07.610Z,2.70
2022-11-02T15:27:37.276Z,2.50
2022-11-02T15:30:07.918Z,3.43
2022-11-02T15:32:40.611Z,4.30
2022-11-02T15:35:18.376Z,2.73
2022-11-02T15:38:11.332Z,2.23
2022-11-02T15:40:37.741Z,2.07
2022-11-02T15:43:11.773Z,2.77
2022-11-02T15:45:57.801Z,3.43
2022-11-02T15:48:38.438Z,2.93
2022-11-02T15:51:13.484Z,2.23
2022-11-02T15:53:57.822Z,3.60
2022-11-02T15:56:31.983Z,2.90
2022-11-02T15:59:13.412Z,2.20
2022-11-02T16:01:43.023Z,3.13
2022-11-02T16:04:21.130Z,3.30
2022-11-02T16:06:51.939Z,2.30
2022-11-02T16:09:31.180Z,2.20
2022-11-02T16:12:03.929Z,3.10
2022-11-02T16:14:33.622Z,3.40
2022-11-02T16:17:02.704Z,2.30
2022-11-02T16:19:32.264Z,2.97
2022-11-02T16:22:02.968Z,3.30
2022-11-02T16:24:32.482Z,2.87
2022-11-02T16:27:01.615Z,3.83
2022-11-02T16:29:32.511Z,2.83
2022-11-02T16:32:02.613Z,4.30
2022-11-02T16:34:32.816Z,4.03
2022-11-02T16:37:09.132Z,3.93
2022-11-02T16:39:42.283Z,3.50
2022-11-02T16:42:16.207Z,3.30
2022-11-02T16:47:20.051Z,3.77
2022-11-02T16:49:59.890Z,3.67
2022-11-02T16:52:33.209Z,4.30
2022-11-02T16:55:02.575Z,4.20
2022-11-02T16:57:32.990Z,3.40
2022-11-02T17:00:04.106Z,3.97
2022-11-02T17:02:35.980Z,2.87
2022-11-02T17:05:06.833Z,5.10
2022-11-02T17:07:41.016Z,4.90
2022-11-02T17:10:11.459Z,3.90
2022-11-02T17:12:42.899Z,3.53
2022-11-02T17:15:16.729Z,6.00
2022-11-02T17:17:45.977Z,4.50
2022-11-02T17:20:20.581Z,5.17
2022-11-02T17:22:55.274Z,5.53
2022-11-02T17:25:25.971Z,4.93
2022-11-02T17:27:55.809Z,5.53
2022-11-02T17:30:44.797Z,6.30
2022-11-02T17:33:28.959Z,3.77
2022-11-02T17:35:59.133Z,3.40
2022-11-02T17:38:29.771Z,4.40
2022-11-02T17:41:01.505Z,5.17
2022-11-02T17:43:29.758Z,6.43
2022-11-02T17:45:59.260Z,5.10
2022-11-02T17:48:29.871Z,3.80
2022-11-02T17:51:00.142Z,4.20
2022-11-02T17:53:30.994Z,5.70
2022-11-02T17:56:00.221Z,3.17
2022-11-02T17:58:29.547Z,8.40
2022-11-02T18:00:58.926Z,8.80
2022-11-02T18:03:31.351Z,9.13
2022-11-02T18:06:01.698Z,4.10
2022-11-02T18:08:52.328Z,3.70
2022-11-02T18:11:26.060Z,3.70
2022-11-02T18:13:55.646Z,4.40
2022-11-02T18:16:24.995Z,4.03
2022-11-02T18:18:54.157Z,9.83
2022-11-02T18:21:23.238Z,8.87
2022-11-02T18:23:54.025Z,4.70
2022-11-02T18:26:23.180Z,5.40
2022-11-02T18:28:52.220Z,6.00
2022-11-02T18:31:21.386Z,6.30
2022-11-02T18:33:52.719Z,4.83
2022-11-02T18:36:21.983Z,4.20
2022-11-02T18:38:51.052Z,4.37
2022-11-02T18:41:31.244Z,4.77
2022-11-02T18:44:05.584Z,5.80
2022-11-02T18:46:35.956Z,4.10
2022-11-02T18:49:05.150Z,5.97
2022-11-02T18:51:35.174Z,4.97
2022-11-02T18:54:05.738Z,4.90
2022-11-02T18:56:36.471Z,5.40
2022-11-02T18:59:05.646Z,6.30
2022-11-02T19:01:34.890Z,7.60
2022-11-02T19:04:04.273Z,7.40
2022-11-02T19:06:52.666Z,6.50
2022-11-02T19:09:23.551Z,5.97
2022-11-02T19:11:56.932Z,6.20
2022-11-02T19:14:26.984Z,4.73
2022-11-02T19:16:56.270Z,5.13
2022-11-02T19:19:25.523Z,5.17
2022-11-02T19:21:54.824Z,7.23
2022-11-02T19:24:24.036Z,5.73
2022-11-02T19:26:53.422Z,5.33
2022-11-02T19:29:24.077Z,7.40
2022-11-02T19:31:53.641Z,8.83
2022-11-02T19:34:23.323Z,8.73
2022-11-02T19:36:52.865Z,10.33
2022-11-02T19:39:21.846Z,9.00
2022-11-02T19:41:52.601Z,9.50
2022-11-02T19:44:21.653Z,7.73
2022-11-02T19:46:52.627Z,4.80
2022-11-02T19:49:21.847Z,6.00
2022-11-02T19:51:51.257Z,7.43
2022-11-02T19:54:20.975Z,6.20
2022-11-02T19:56:50.055Z,6.20
2022-11-02T19:59:19.213Z,5.90
2022-11-02T20:01:50.880Z,7.97
2022-11-02T20:04:21.570Z,5.63
2022-11-02T20:06:50.635Z,5.30
2022-11-02T20:09:20.720Z,7.80
2022-11-02T20:11:50.077Z,11.00
2022-11-02T20:14:19.516Z,7.30
2022-11-02T20:16:58.662Z,4.30
2022-11-02T20:19:29.542Z,8.43
2022-11-02T20:21:58.744Z,5.83
2022-11-02T20:24:27.939Z,6.80
2022-11-02T20:27:02.857Z,10.67
2022-11-02T20:29:32.122Z,7.27
2022-11-02T20:32:01.183Z,7.13
2022-11-02T20:34:31.939Z,6.80
2022-11-02T20:37:00.965Z,5.00
2022-11-02T20:39:30.171Z,9.00
2022-11-02T20:41:59.301Z,9.53
2022-11-02T20:44:28.289Z,10.43
2022-11-02T20:46:57.462Z,4.80
2022-11-02T20:49:49.297Z,5.70
2022-11-02T20:52:22.073Z,5.80
2022-11-02T20:54:51.503Z,8.90
2022-11-02T20:57:22.222Z,7.00
2022-11-02T20:59:51.570Z,6.50
2022-11-02T21:02:22.454Z,6.33
2022-11-02T21:04:52.386Z,7.33
2022-11-02T21:07:23.138Z,7.30
2022-11-02T21:09:52.950Z,6.97
2022-11-02T21:12:39.497Z,6.60
2022-11-02T21:15:09.339Z,9.20
2022-11-02T21:17:38.513Z,6.57
2022-11-02T21:23:00.853Z,7.17
2022-11-02T21:25:30.688Z,9.10
2022-11-02T21:27:59.901Z,7.53
2022-11-02T21:30:31.123Z,3.90
2022-11-02T21:33:00.350Z,6.43
2022-11-02T21:35:29.475Z,9.10
2022-11-02T21:38:02.507Z,5.50
2022-11-02T21:40:35.859Z,5.97
2022-11-02T21:43:05.237Z,8.23
2022-11-02T21:45:37.864Z,6.20
2022-11-02T21:48:07.603Z,5.73
2022-11-02T21:50:36.643Z,6.40
2022-11-02T21:53:07.814Z,4.90
2022-11-02T21:55:37.559Z,5.27
2022-11-02T21:58:06.767Z,5.20
2022-11-02T22:01:08.223Z,5.90
2022-11-02T22:03:37.272Z,4.27
2022-11-02T22:06:06.423Z,4.80
2022-11-02T22:08:40.192Z,7.37
2022-11-02T22:11:13.864Z,6.23
2022-11-02T22:13:43.528Z,5.70
2022-11-02T22:16:17.930Z,4.40
2022-11-02T22:18:47.736Z,5.87
2022-11-02T22:21:17.370Z,7.70
2022-11-02T22:23:48.779Z,5.07
2022-11-02T22:26:18.578Z,4.90
2022-11-02T22:28:48.014Z,3.80
2022-11-02T22:31:18.573Z,4.50
2022-11-02T22:33:48.253Z,4.20
2022-11-02T22:36:18.997Z,4.47
2022-11-02T22:38:51.863Z,4.13
2022-11-02T22:41:21.652Z,4.43
2022-11-02T22:43:51.112Z,3.40
2022-11-02T22:46:20.716Z,3.70
2022-11-02T22:48:50.059Z,3.30
2022-11-02T22:51:19.323Z,3.50
2022-11-02T22:53:50.320Z,5.17
2022-11-02T22:56:20.174Z,3.70
2022-11-02T22:58:49.700Z,4.43
2022-11-02T23:01:20.380Z,3.90
2022-11-02T23:03:49.816Z,3.60
2022-11-02T23:06:21.333Z,3.93
2022-11-02T23:08:52.759Z,4.07
2022-11-02T23:11:22.083Z,4.77
2022-11-02T23:13:51.830Z,3.50
2022-11-02T23:16:25.125Z,3.60
2022-11-02T23:19:13.404Z,3.30
2022-11-02T23:21:43.739Z,3.33
2022-11-02T23:24:31.962Z,3.30
2022-11-02T23:27:02.045Z,3.17
2022-11-02T23:29:48.651Z,3.30
2022-11-02T23:32:27.834Z,3.13
2022-11-02T23:35:15.471Z,3.00
2022-11-02T23:37:45.309Z,3.17
2022-11-02T23:40:16.801Z,2.87
2022-11-02T23:42:46.034Z,3.30
2022-11-02T23:45:15.119Z,3.90
2022-11-02T23:48:01.060Z,3.13
2022-11-02T23:50:49.355Z,3.27
2022-11-02T23:53:37.336Z,2.93
2022-11-02T23:56:26.775Z,3.80
2022-11-02T23:59:06.772Z,3.50
